Time;durP1;ratioP1;P1;durP2;ratioP2;P2;SDS_P1;SDS_P2;PMS_P1;PMS_P2;Temp;Humidity;BMP_temperature;BMP_pressure;BME280_temperature;BME280_humidity;BME280_pressure;Samples;Min_cycle;Max_cycle;Signal;HPM_P1;HPM_P2
2022/08/06 00:01:22;;;;;;;2.83;2.28;;;;;;;26.07;53.03;98500.06;5048243;28;20036;-61
2022/08/06 00:04:07;;;;;;;4.00;2.40;;;;;;;26.06;53.44;98511.84;5037313;28;20037;-61
2022/08/06 00:06:52;;;;;;;3.03;2.35;;;;;;;25.94;53.74;98509.00;5031883;28;20046;-61
2022/08/06 00:09:36;;;;;;;3.42;2.00;;;;;;;25.92;53.61;98501.16;5035261;28;20049;-62
2022/08/06 00:12:21;;;;;;;3.03;2.10;;;;;;;25.87;53.86;98502.84;5031985;28;20113;-61
2022/08/06 00:15:06;;;;;;;2.83;1.50;;;;;;;25.89;53.71;98511.50;5033714;28;20446;-62
2022/08/06 00:17:50;;;;;;;2.38;2.17;;;;;;;25.92;53.37;98509.22;5039387;28;20072;-62
2022/08/06 00:20:35;;;;;;;2.17;1.90;;;;;;;25.90;53.70;98500.53;5030296;28;20057;-61
2022/08/06 00:23:20;;;;;;;3.25;2.35;;;;;;;25.86;53.92;98502.03;5031152;28;20036;-62
2022/08/06 00:26:05;;;;;;;2.22;1.90;;;;;;;25.70;53.84;98511.34;5030053;28;20045;-62
2022/08/06 00:28:50;;;;;;;2.28;2.08;;;;;;;25.86;53.68;98511.91;5030517;28;20067;-62
2022/08/06 00:31:35;;;;;;;5.72;2.65;;;;;;;25.95;52.81;98511.47;5044152;28;20186;-62
2022/08/06 00:34:19;;;;;;;2.13;1.75;;;;;;;26.03;52.29;98505.03;5032088;28;20048;-61
2022/08/06 00:37:04;;;;;;;3.00;2.17;;;;;;;26.16;52.89;98503.34;5040802;28;20126;-62
2022/08/06 00:39:49;;;;;;;3.00;2.22;;;;;;;26.05;52.58;98508.34;5038450;28;20429;-62
2022/08/06 00:42:34;;;;;;;3.47;2.40;;;;;;;26.01;52.79;98498.25;5038295;28;20056;-62
2022/08/06 00:45:19;;;;;;;3.17;2.25;;;;;;;25.91;53.04;98494.16;5034959;28;20400;-62
2022/08/06 00:48:03;;;;;;;9.15;2.47;;;;;;;25.73;53.95;98496.69;5036610;28;20041;-62
2022/08/06 00:50:48;;;;;;;2.03;1.80;;;;;;;25.60;54.22;98498.34;5044399;28;20043;-60
2022/08/06 00:53:33;;;;;;;2.58;2.00;;;;;;;25.66;53.57;98494.03;5041803;28;20085;-61
2022/08/06 00:56:18;;;;;;;3.67;1.80;;;;;;;25.66;54.01;98497.53;5038464;28;20528;-60
2022/08/06 00:59:03;;;;;;;3.35;2.00;;;;;;;25.59;54.19;98502.09;5035077;28;20038;-60
2022/08/06 01:01:48;;;;;;;3.70;2.15;;;;;;;25.55;54.62;98508.88;5034793;28;20116;-61
2022/08/06 01:04:33;;;;;;;2.25;1.92;;;;;;;25.48;54.84;98524.19;5034663;28;20071;-60
2022/08/06 01:07:17;;;;;;;3.10;2.20;;;;;;;25.31;55.25;98528.09;5033976;28;20048;-61
2022/08/06 01:10:03;;;;;;;2.38;1.90;;;;;;;25.29;56.06;98518.63;5047263;28;20045;-61
2022/08/06 01:12:48;;;;;;;2.78;2.38;;;;;;;25.18;56.07;98526.25;5053717;28;20060;-61
2022/08/06 01:15:33;;;;;;;2.95;2.25;;;;;;;25.03;57.15;98528.31;5034228;28;20111;-60
2022/08/06 01:18:27;;;;;;;2.38;1.98;;;;;;;25.05;56.87;98518.22;5033530;28;20041;-61
2022/08/06 01:21:29;;;;;;;4.63;2.28;;;;;;;25.05;56.38;98527.06;5035086;28;20041;-61
2022/08/06 01:24:24;;;;;;;5.88;2.10;;;;;;;25.00;57.24;98524.19;5036204;28;20050;-61
2022/08/06 01:27:40;;;;;;;5.80;2.85;;;;;;;24.84;57.78;98528.88;5045886;28;20099;-61
2022/08/06 01:30:32;;;;;;;5.40;2.28;;;;;;;24.90;57.64;98526.44;5048122;28;20060;-61
2022/08/06 01:33:36;;;;;;;2.85;2.20;;;;;;;24.89;56.80;98528.28;5033168;28;20068;-61
2022/08/06 01:36:32;;;;;;;3.75;2.33;;;;;;;24.90;56.95;98532.66;5034141;28;20434;-61
2022/08/06 01:39:19;;;;;;;3.45;2.08;;;;;;;24.90;56.82;98532.66;5061195;28;20044;-61
2022/08/06 01:42:07;;;;;;;3.72;2.17;;;;;;;24.85;56.97;98535.91;5034409;28;20069;-61
2022/08/06 01:44:54;;;;;;;3.50;2.33;;;;;;;24.87;56.91;98541.06;5034008;28;20054;-61
2022/08/06 01:47:41;;;;;;;4.15;2.50;;;;;;;24.78;57.48;98543.09;5033928;28;20036;-61
2022/08/06 01:50:33;;;;;;;3.70;2.40;;;;;;;24.62;58.01;98546.97;5033810;28;20065;-61
2022/08/06 01:53:28;;;;;;;3.03;2.25;;;;;;;24.59;58.28;98548.22;5034364;28;20518;-60
2022/08/06 01:56:14;;;;;;;7.53;2.67;;;;;;;24.60;58.21;98557.06;5040196;28;20041;-61
2022/08/06 01:59:02;;;;;;;3.75;2.10;;;;;;;24.58;58.80;98553.78;5041143;28;20178;-61
2022/08/06 02:01:51;;;;;;;3.20;2.35;;;;;;;24.55;58.92;98557.66;5033790;28;20440;-61
2022/08/06 02:04:40;;;;;;;5.00;2.20;;;;;;;24.41;59.30;98566.69;5043020;28;20052;-61
2022/08/06 02:07:30;;;;;;;3.95;2.40;;;;;;;24.46;59.42;98572.28;5033439;28;20054;-61
2022/08/06 02:10:17;;;;;;;4.90;2.47;;;;;;;24.20;60.42;98566.63;5035854;28;20045;-62
2022/08/06 02:13:03;;;;;;;3.97;2.40;;;;;;;24.13;60.53;98565.72;5045213;28;20037;-62
2022/08/06 02:15:49;;;;;;;3.42;2.45;;;;;;;24.17;60.71;98577.69;5033538;28;20108;-61
2022/08/06 02:18:37;;;;;;;4.93;2.92;;;;;;;24.10;61.10;98582.19;5026892;28;20485;-61
2022/08/06 02:21:23;;;;;;;5.00;2.38;;;;;;;24.07;61.32;98590.59;5034060;28;20108;-62
2022/08/06 02:24:08;;;;;;;4.00;2.75;;;;;;;24.08;61.31;98601.09;5033926;28;20046;-62
2022/08/06 02:26:59;;;;;;;3.33;2.55;;;;;;;24.13;61.23;98603.19;5046354;28;20045;-62
2022/08/06 02:29:54;;;;;;;3.35;2.45;;;;;;;24.10;60.68;98608.94;5065652;28;20128;-62
2022/08/06 02:32:43;;;;;;;4.88;3.15;;;;;;;24.17;60.81;98615.16;5041717;28;20044;-61
2022/08/06 02:36:01;;;;;;;3.40;2.67;;;;;;;24.24;60.20;98612.53;5058901;28;20119;-62
2022/08/06 02:38:50;;;;;;;3.85;2.42;;;;;;;24.26;60.13;98629.22;5036210;28;20065;-61
2022/08/06 02:41:42;;;;;;;5.72;2.72;;;;;;;24.23;60.35;98633.13;5033671;28;20048;-60
2022/08/06 02:44:29;;;;;;;3.58;2.75;;;;;;;24.31;60.00;98621.41;5033484;28;20057;-61
2022/08/06 02:47:30;;;;;;;4.70;2.50;;;;;;;24.39;59.83;98633.81;5048773;28;20049;-60
2022/08/06 02:50:17;;;;;;;3.20;2.60;;;;;;;24.33;59.95;98626.56;5032785;28;20044;-61
2022/08/06 02:53:06;;;;;;;2.97;2.67;;;;;;;24.43;59.01;98637.72;5033126;28;20061;-62
2022/08/06 02:55:56;;;;;;;4.93;2.75;;;;;;;24.31;59.89;98640.16;5032483;28;20037;-61
2022/08/06 02:58:44;;;;;;;4.40;2.40;;;;;;;24.32;59.86;98627.56;5032635;28;20065;-61
2022/08/06 03:01:36;;;;;;;3.08;2.30;;;;;;;24.25;59.78;98638.28;5032009;28;20099;-61
2022/08/06 03:04:25;;;;;;;3.00;2.10;;;;;;;24.26;59.66;98639.91;5038111;28;20055;-61
2022/08/06 03:07:12;;;;;;;3.17;2.40;;;;;;;24.21;60.23;98651.22;5042528;28;20040;-61
2022/08/06 03:10:00;;;;;;;3.08;2.10;;;;;;;24.09;60.61;98653.56;5045176;28;20358;-61
2022/08/06 03:12:45;;;;;;;4.95;2.30;;;;;;;23.99;61.29;98669.97;5031502;28;20051;-60
2022/08/06 03:15:33;;;;;;;5.05;2.40;;;;;;;23.99;61.45;98679.88;5032483;28;20060;-60
2022/08/06 03:18:19;;;;;;;3.60;2.20;;;;;;;23.85;61.90;98679.75;5040095;28;20037;-62
2022/08/06 03:21:06;;;;;;;3.60;2.33;;;;;;;23.87;61.50;98682.25;5058742;28;20111;-61
2022/08/06 03:23:52;;;;;;;4.38;2.17;;;;;;;23.66;63.03;98675.91;5032149;28;20038;-61
2022/08/06 03:26:39;;;;;;;2.60;2.00;;;;;;;23.49;63.47;98691.38;5040613;28;20049;-61
2022/08/06 03:29:26;;;;;;;3.42;2.17;;;;;;;23.41;64.54;98684.31;5042445;28;20042;-61
2022/08/06 03:32:13;;;;;;;4.30;2.30;;;;;;;23.38;65.12;98695.38;5032156;28;20441;-61
2022/08/06 03:34:59;;;;;;;5.30;2.00;;;;;;;23.20;65.84;98695.78;5044524;28;20076;-61
2022/08/06 03:37:45;;;;;;;2.17;1.80;;;;;;;23.00;67.10;98699.91;5017032;28;20061;-61
2022/08/06 03:40:32;;;;;;;4.53;1.95;;;;;;;22.89;67.98;98717.25;5032263;28;20091;-60
2022/08/06 03:43:17;;;;;;;3.47;1.85;;;;;;;22.91;68.07;98710.88;5046543;28;20083;-61
2022/08/06 03:46:05;;;;;;;3.78;1.98;;;;;;;22.73;69.17;98714.78;5032565;28;20060;-61
2022/08/06 03:48:53;;;;;;;2.53;1.98;;;;;;;22.52;70.27;98713.66;5040926;28;20045;-62
2022/08/06 03:51:38;;;;;;;2.25;1.73;;;;;;;22.44;71.13;98709.22;5031867;28;20033;-62
2022/08/06 03:54:31;;;;;;;2.97;1.92;;;;;;;22.37;71.72;98695.00;5031982;28;20513;-62
2022/08/06 03:57:19;;;;;;;3.03;1.90;;;;;;;22.31;72.29;98735.75;5031582;28;20056;-62
2022/08/06 04:00:07;;;;;;;2.67;1.90;;;;;;;22.26;72.57;98726.44;5037913;28;20040;-62
2022/08/06 04:02:58;;;;;;;4.22;1.80;;;;;;;22.30;72.70;98704.72;5037546;28;20389;-62
2022/08/06 04:05:44;;;;;;;4.03;2.10;;;;;;;22.01;74.21;98728.53;5043640;28;20049;-62
2022/08/06 04:08:30;;;;;;;2.15;1.80;;;;;;;22.03;74.91;98734.50;5030424;28;20095;-61
2022/08/06 04:11:17;;;;;;;2.40;1.70;;;;;;;22.06;75.07;98744.81;5030440;28;20496;-62
2022/08/06 04:14:02;;;;;;;2.00;1.80;;;;;;;22.12;75.00;98738.75;5031474;28;20033;-61
2022/08/06 04:16:48;;;;;;;3.28;2.08;;;;;;;22.05;75.71;98750.34;5030487;28;20056;-62
2022/08/06 04:19:33;;;;;;;4.88;1.95;;;;;;;22.22;74.82;98757.16;5030175;28;20044;-61
2022/08/06 04:22:20;;;;;;;3.15;1.75;;;;;;;22.14;76.14;98767.91;5031485;28;20044;-61
2022/08/06 04:25:05;;;;;;;2.53;1.95;;;;;;;22.09;76.83;98770.28;5038253;28;20078;-61
2022/08/06 04:27:51;;;;;;;2.95;1.80;;;;;;;22.18;76.82;98776.38;5033223;28;20033;-61
2022/08/06 04:30:39;;;;;;;2.45;1.73;;;;;;;22.25;77.01;98795.97;5044811;28;20077;-62
2022/08/06 04:33:26;;;;;;;3.65;2.17;;;;;;;22.07;77.82;98783.81;5040069;28;20033;-62
2022/08/06 04:36:12;;;;;;;3.08;1.88;;;;;;;22.24;77.28;98792.50;5045473;28;20108;-61
2022/08/06 04:38:57;;;;;;;7.35;2.10;;;;;;;22.01;79.00;98797.84;5041880;28;20563;-61
2022/08/06 04:41:42;;;;;;;3.92;2.05;;;;;;;22.02;79.26;98792.34;5030965;28;20384;-62
2022/08/06 04:44:27;;;;;;;3.75;2.03;;;;;;;22.06;79.69;98803.50;5030025;28;20072;-61
2022/08/06 04:47:13;;;;;;;3.10;2.05;;;;;;;22.05;80.70;98798.34;5044069;28;20115;-62
2022/08/06 04:49:58;;;;;;;4.05;2.17;;;;;;;21.99;81.16;98802.53;5033320;28;20045;-61
2022/08/06 04:52:44;;;;;;;2.50;2.30;;;;;;;22.24;79.89;98797.84;5030927;28;20115;-61
2022/08/06 04:55:28;;;;;;;4.20;1.90;;;;;;;22.32;79.86;98804.09;5023216;28;20061;-62
2022/08/06 04:58:15;;;;;;;3.30;2.22;;;;;;;22.19;80.38;98816.22;5033388;28;20049;-62
2022/08/06 05:01:00;;;;;;;3.72;1.90;;;;;;;22.16;80.88;98816.56;5030220;28;20037;-61
2022/08/06 05:03:45;;;;;;;2.72;1.88;;;;;;;22.31;79.96;98813.13;5034394;28;20041;-61
2022/08/06 05:06:52;;;;;;;5.57;2.60;;;;;;;22.09;81.33;98807.63;5040458;28;20463;-62
2022/08/06 05:09:36;;;;;;;2.58;2.10;;;;;;;22.48;79.69;98824.44;5043367;28;20080;-60
2022/08/06 05:12:27;;;;;;;3.85;2.50;;;;;;;22.44;79.34;98831.97;5041086;28;20057;-61
2022/08/06 05:15:31;;;;;;;3.72;2.72;;;;;;;22.33;80.86;98832.41;5031940;28;20033;-61
2022/08/06 05:18:24;;;;;;;5.68;2.42;;;;;;;22.15;82.05;98845.06;5046625;28;20045;-61
2022/08/06 05:21:12;;;;;;;4.70;2.97;;;;;;;22.46;80.54;98856.66;5036045;28;20038;-61
2022/08/06 05:23:58;;;;;;;4.15;2.30;;;;;;;22.54;80.18;98847.72;5031129;28;20122;-61
2022/08/06 05:26:42;;;;;;;4.55;2.53;;;;;;;22.26;81.72;98849.16;5040837;28;20071;-61
2022/08/06 05:29:28;;;;;;;4.22;3.00;;;;;;;22.33;81.42;98833.25;5039015;28;20120;-61
2022/08/06 05:32:12;;;;;;;4.30;2.63;;;;;;;22.13;82.82;98854.28;5068560;28;20128;-61
2022/08/06 05:34:57;;;;;;;5.07;2.92;;;;;;;22.22;82.51;98847.88;5035090;28;20083;-62
2022/08/06 05:37:42;;;;;;;6.40;2.63;;;;;;;22.24;82.32;98853.00;5034199;28;20037;-61
2022/08/06 05:40:33;;;;;;;4.28;2.38;;;;;;;22.44;81.68;98863.19;5034131;28;20107;-61
2022/08/06 05:43:18;;;;;;;4.10;2.42;;;;;;;22.46;81.53;98859.31;5034650;28;20049;-62
2022/08/06 05:46:08;;;;;;;5.30;2.65;;;;;;;22.11;83.08;98861.63;5034160;28;20190;-62
2022/08/06 05:49:07;;;;;;;3.30;2.53;;;;;;;22.21;82.88;98878.19;5034382;28;20037;-61
2022/08/06 05:52:12;;;;;;;6.07;2.58;;;;;;;22.19;83.05;98874.91;5033689;28;20135;-62
2022/08/06 05:55:14;;;;;;;6.15;2.40;;;;;;;21.99;84.88;98878.03;5034115;28;20053;-61
2022/08/06 05:58:06;;;;;;;3.97;2.17;;;;;;;22.11;84.23;98877.63;5034091;28;20037;-61
2022/08/06 06:00:53;;;;;;;3.92;2.38;;;;;;;22.18;84.34;98883.88;5033968;28;20112;-60
2022/08/06 06:03:40;;;;;;;3.47;2.55;;;;;;;22.07;84.89;98894.97;5047889;28;20037;-62
2022/08/06 06:06:25;;;;;;;3.63;2.25;;;;;;;21.83;86.53;98896.78;5037869;28;20435;-61
2022/08/06 06:09:13;;;;;;;2.78;2.13;;;;;;;22.23;84.51;98910.06;5032818;28;20485;-62
2022/08/06 06:11:59;;;;;;;4.95;2.40;;;;;;;22.19;84.46;98906.91;5033344;28;20477;-61
2022/08/06 06:14:47;;;;;;;3.05;2.22;;;;;;;22.12;84.70;98897.94;5020772;28;20038;-61
2022/08/06 06:18:08;;;;;;;3.20;2.25;;;;;;;21.70;87.92;98897.34;5033629;28;20435;-62
2022/08/06 06:21:36;;;;;;;4.30;2.40;;;;;;;21.90;86.81;98901.25;5033906;28;20042;-62
2022/08/06 06:24:37;;;;;;;4.07;2.28;;;;;;;21.93;86.82;98899.25;5033413;28;20038;-62
2022/08/06 06:27:42;;;;;;;4.22;2.30;;;;;;;22.17;84.96;98902.75;5036275;28;20607;-63
2022/08/06 06:30:36;;;;;;;2.85;2.00;;;;;;;22.33;84.07;98904.44;5033452;28;20048;-61
2022/08/06 06:33:28;;;;;;;3.83;2.80;;;;;;;22.35;84.59;98897.09;5034538;28;20037;-60
2022/08/06 06:36:25;;;;;;;4.18;2.63;;;;;;;22.20;84.93;98900.56;5032934;28;20034;-62
2022/08/06 06:39:35;;;;;;;4.75;2.70;;;;;;;22.21;85.12;98918.22;5042346;28;20065;-62
2022/08/06 06:42:25;;;;;;;3.60;1.90;;;;;;;22.48;83.84;98925.84;5036047;28;20106;-62
2022/08/06 06:45:29;;;;;;;3.45;2.33;;;;;;;22.39;83.90;98904.56;5035798;28;20119;-62
2022/08/06 06:48:55;;;;;;;4.07;2.50;;;;;;;22.56;82.01;98911.59;5032275;28;20052;-62
2022/08/06 06:52:01;;;;;;;3.78;2.42;;;;;;;22.72;81.45;98916.84;5010707;28;20049;-63
2022/08/06 06:54:52;;;;;;;4.30;2.65;;;;;;;23.01;79.69;98915.22;5033083;28;20042;-61
2022/08/06 06:57:42;;;;;;;3.17;2.40;;;;;;;22.60;81.23;98913.78;5040250;28;20056;-62
2022/08/06 07:00:27;;;;;;;3.30;2.53;;;;;;;22.73;80.80;98912.34;5044804;28;20439;-62
2022/08/06 07:03:14;;;;;;;2.80;2.28;;;;;;;22.69;81.25;98914.53;5032874;28;20052;-64
2022/08/06 07:05:59;;;;;;;3.20;2.83;;;;;;;22.61;81.59;98912.78;5059606;28;20077;-61
2022/08/06 07:08:48;;;;;;;3.50;2.60;;;;;;;22.92;80.15;98916.31;5031772;28;20037;-62
2022/08/06 07:11:33;;;;;;;4.53;2.70;;;;;;;22.90;80.36;98899.66;5034626;28;20058;-61
2022/08/06 07:14:21;;;;;;;5.07;2.90;;;;;;;23.00;79.75;98923.41;5039610;28;20088;-61
2022/08/06 07:17:07;;;;;;;5.63;3.30;;;;;;;23.34;78.03;98927.38;5032547;28;20167;-63
2022/08/06 07:19:56;;;;;;;6.38;3.40;;;;;;;22.93;80.22;98925.97;5033020;28;20034;-61
2022/08/06 07:22:43;;;;;;;3.42;2.47;;;;;;;22.91;80.63;98928.03;5033161;28;20037;-61
2022/08/06 07:25:31;;;;;;;4.38;2.85;;;;;;;23.18;79.77;98946.28;5032672;28;20033;-62
2022/08/06 07:28:16;;;;;;;5.97;3.03;;;;;;;23.67;76.76;98939.56;5040533;28;20036;-62
2022/08/06 07:31:04;;;;;;;3.35;2.60;;;;;;;23.84;76.04;98955.41;5031150;28;20045;-61
2022/08/06 07:33:50;;;;;;;4.53;2.67;;;;;;;23.97;75.04;98949.38;5038941;28;20047;-62
2022/08/06 07:36:40;;;;;;;4.72;3.22;;;;;;;23.12;78.87;98961.19;5034340;28;20029;-61
2022/08/06 07:39:29;;;;;;;4.68;2.90;;;;;;;23.10;79.42;98960.53;5036308;28;20045;-62
2022/08/06 07:42:16;;;;;;;3.00;2.47;;;;;;;23.61;77.65;98961.69;5031994;28;20041;-62
2022/08/06 07:45:05;;;;;;;4.10;2.47;;;;;;;23.79;76.11;98963.16;5036422;28;20059;-61
2022/08/06 07:47:52;;;;;;;3.35;2.45;;;;;;;23.95;75.09;98972.78;5030798;28;20049;-62
2022/08/06 07:50:39;;;;;;;3.60;2.40;;;;;;;24.66;72.21;98965.09;5063224;28;20048;-62
2022/08/06 07:53:25;;;;;;;4.35;2.53;;;;;;;24.79;71.32;98967.88;5035693;28;20040;-62
2022/08/06 07:56:10;;;;;;;4.05;2.88;;;;;;;25.09;69.62;98964.22;5031141;28;20096;-61
2022/08/06 07:58:57;;;;;;;5.10;2.60;;;;;;;24.67;71.73;98983.66;5032141;28;20040;-60
2022/08/06 08:01:42;;;;;;;3.13;2.70;;;;;;;24.92;70.50;98990.47;5044061;28;20048;-62
2022/08/06 08:07:33;;;;;;;3.38;2.55;;;;;;;24.93;70.06;99013.56;5032584;28;20073;-60
2022/08/06 08:10:19;;;;;;;3.33;2.40;;;;;;;24.71;70.92;99017.06;5032068;28;20048;-61
2022/08/06 08:13:04;;;;;;;3.80;2.50;;;;;;;25.13;68.96;99028.97;5031533;28;20037;-62
2022/08/06 08:15:51;;;;;;;2.63;2.28;;;;;;;25.46;67.43;99034.56;5030449;28;20046;-61
2022/08/06 08:18:35;;;;;;;3.35;2.10;;;;;;;25.22;68.26;99038.50;5044346;28;20180;-62
2022/08/06 08:21:21;;;;;;;3.35;2.08;;;;;;;25.55;67.34;99043.28;5038609;28;20040;-61
2022/08/06 08:24:05;;;;;;;5.28;2.58;;;;;;;26.05;65.10;99042.31;5031521;28;20041;-60
2022/08/06 08:26:50;;;;;;;3.75;2.33;;;;;;;26.06;64.64;99046.69;5035881;28;20063;-60
2022/08/06 08:29:36;;;;;;;3.65;1.90;;;;;;;25.39;66.03;99028.34;5037750;28;20500;-60
2022/08/06 08:32:21;;;;;;;3.47;1.98;;;;;;;24.78;68.94;99048.41;5050852;28;20033;-62
2022/08/06 08:35:06;;;;;;;2.67;2.05;;;;;;;24.83;68.19;99040.63;5031183;28;20038;-62
2022/08/06 08:37:50;;;;;;;3.47;2.85;;;;;;;25.66;65.00;99046.44;5029547;28;20071;-62
2022/08/06 08:40:36;;;;;;;2.25;1.67;;;;;;;25.38;65.94;99034.69;5029827;28;20083;-62
2022/08/06 08:43:24;;;;;;;3.80;2.00;;;;;;;25.01;67.21;99045.56;5031309;28;20064;-62
2022/08/06 08:46:09;;;;;;;2.42;1.80;;;;;;;24.99;68.18;99049.47;5031879;28;20459;-61
2022/08/06 08:48:57;;;;;;;2.55;1.92;;;;;;;26.06;64.21;99048.53;5029851;28;20034;-62
2022/08/06 08:51:45;;;;;;;2.15;1.83;;;;;;;26.00;63.31;99057.38;5031255;28;20075;-61
2022/08/06 08:54:34;;;;;;;2.28;1.73;;;;;;;26.51;61.73;99076.75;5016548;28;20042;-60
2022/08/06 08:57:22;;;;;;;2.40;1.75;;;;;;;25.66;63.17;99074.09;5038790;28;20041;-63
2022/08/06 09:00:08;;;;;;;2.25;1.30;;;;;;;26.43;59.32;99083.16;5032694;28;20034;-61
2022/08/06 09:02:52;;;;;;;3.33;1.30;;;;;;;25.17;62.15;99076.63;5035007;28;20112;-61
2022/08/06 09:05:37;;;;;;;1.63;1.00;;;;;;;24.18;64.74;99078.88;5047402;28;20053;-62
2022/08/06 09:08:22;;;;;;;1.85;0.88;;;;;;;23.94;65.91;99080.81;5067784;28;20037;-61
2022/08/06 09:11:07;;;;;;;1.33;0.90;;;;;;;24.41;64.55;99097.50;5035205;28;20037;-61
2022/08/06 09:13:52;;;;;;;1.38;0.80;;;;;;;23.93;65.70;99100.53;5049156;28;20044;-61
2022/08/06 09:16:37;;;;;;;2.13;0.70;;;;;;;23.61;67.10;99101.56;5035710;28;20041;-60
2022/08/06 09:19:22;;;;;;;3.70;0.75;;;;;;;23.59;67.55;99108.06;5041428;28;20112;-61
2022/08/06 09:22:07;;;;;;;1.00;0.80;;;;;;;23.32;68.40;99105.78;5034859;28;20033;-60
2022/08/06 09:24:51;;;;;;;2.05;0.80;;;;;;;23.34;67.58;99114.44;5034807;28;20048;-61
2022/08/06 09:27:36;;;;;;;1.05;0.50;;;;;;;23.16;68.62;99103.25;5044154;28;20072;-60
2022/08/06 09:30:22;;;;;;;1.15;0.80;;;;;;;23.24;69.27;99109.34;5042835;28;20548;-62
2022/08/06 09:33:12;;;;;;;0.90;0.68;;;;;;;23.09;69.09;99112.00;5066956;28;20555;-61
2022/08/06 09:36:02;;;;;;;1.02;0.40;;;;;;;22.89;71.19;99117.81;5022615;28;20042;-61
2022/08/06 09:38:59;;;;;;;0.90;0.63;;;;;;;22.99;71.38;99112.25;5034381;28;20043;-61
2022/08/06 09:41:49;;;;;;;1.58;0.90;;;;;;;23.09;71.04;99127.19;5032888;28;20104;-61
2022/08/06 09:44:34;;;;;;;1.05;0.70;;;;;;;22.92;72.06;99121.13;5034351;28;20430;-62
2022/08/06 09:47:19;;;;;;;1.60;0.93;;;;;;;22.41;74.67;99125.88;5061257;28;20111;-60
2022/08/06 09:50:06;;;;;;;0.82;0.60;;;;;;;22.69;73.96;99121.94;5047078;28;20534;-61
2022/08/06 09:53:02;;;;;;;1.33;0.63;;;;;;;22.63;74.06;99115.47;5060871;28;20369;-61
2022/08/06 09:55:48;;;;;;;0.88;0.50;;;;;;;22.66;74.30;99116.94;5034212;28;20037;-61
2022/08/06 09:58:35;;;;;;;1.17;0.57;;;;;;;22.80;73.79;99124.19;5034119;28;20041;-61
2022/08/06 10:01:22;;;;;;;0.88;0.60;;;;;;;22.65;74.55;99132.16;5033473;28;20067;-61
2022/08/06 10:04:12;;;;;;;0.98;0.60;;;;;;;22.52;75.57;99146.84;5066939;28;20052;-63
2022/08/06 10:07:01;;;;;;;1.77;0.80;;;;;;;22.74;74.82;99155.13;5034973;28;20388;-62
2022/08/06 10:09:53;;;;;;;0.50;0.50;;;;;;;22.57;76.40;99148.16;5035374;28;20056;-62
2022/08/06 10:12:39;;;;;;;1.30;0.73;;;;;;;22.51;76.52;99150.53;5032886;28;20042;-62
2022/08/06 10:15:30;;;;;;;0.80;0.57;;;;;;;22.12;78.51;99154.00;5034192;28;20041;-62
2022/08/06 10:18:36;;;;;;;1.05;0.68;;;;;;;22.12;79.29;99156.66;5038102;28;20029;-61
2022/08/06 10:21:25;;;;;;;0.70;0.60;;;;;;;22.26;78.65;99147.94;5050549;28;20431;-62
2022/08/06 10:24:11;;;;;;;0.77;0.52;;;;;;;22.53;77.32;99171.69;5033580;28;20057;-62
2022/08/06 10:26:56;;;;;;;1.55;0.80;;;;;;;22.24;78.92;99163.31;5033215;28;20049;-62
2022/08/06 10:29:44;;;;;;;1.23;0.60;;;;;;;22.32;78.46;99158.94;5032533;28;20041;-62
2022/08/06 10:32:38;;;;;;;1.15;0.80;;;;;;;21.88;81.04;99158.41;5033571;28;20040;-62
2022/08/06 10:35:23;;;;;;;1.00;0.68;;;;;;;22.07;80.06;99162.53;5040374;28;20416;-62
2022/08/06 10:38:16;;;;;;;2.25;0.60;;;;;;;21.56;82.60;99166.22;5044198;28;20033;-62
2022/08/06 10:41:07;;;;;;;1.77;0.70;;;;;;;21.72;81.82;99173.41;5042128;28;20094;-62
2022/08/06 10:43:53;;;;;;;1.17;0.60;;;;;;;21.95;80.65;99178.03;5038447;28;20391;-62
2022/08/06 10:46:39;;;;;;;1.45;0.60;;;;;;;21.76;79.92;99181.88;5048324;28;20098;-62
2022/08/06 10:49:25;;;;;;;1.20;0.40;;;;;;;21.29;82.77;99193.03;5032191;28;20116;-62
2022/08/06 10:52:12;;;;;;;3.45;0.70;;;;;;;21.77;80.21;99189.72;5032102;28;20036;-62
2022/08/06 10:54:59;;;;;;;1.15;0.60;;;;;;;21.36;81.14;99184.38;5032985;28;20045;-62
2022/08/06 10:57:44;;;;;;;0.40;0.30;;;;;;;21.19;82.57;99196.84;5031948;28;20033;-62
2022/08/06 11:00:33;;;;;;;0.95;0.30;;;;;;;21.31;81.23;99190.22;5032951;28;20037;-62
2022/08/06 11:03:35;;;;;;;1.13;0.40;;;;;;;21.38;80.57;99199.19;5032329;28;20091;-63
2022/08/06 11:06:47;;;;;;;1.15;0.50;;;;;;;21.25;81.26;99191.69;5040399;28;20049;-61
2022/08/06 11:10:04;;;;;;;3.20;0.57;;;;;;;21.50;79.19;99170.41;5059791;28;20041;-60
2022/08/06 11:12:52;;;;;;;0.57;0.50;;;;;;;21.41;80.09;99185.53;5038190;28;20419;-61
2022/08/06 11:15:40;;;;;;;0.68;0.40;;;;;;;21.58;79.53;99195.38;5018946;28;20042;-62
2022/08/06 11:18:26;;;;;;;0.80;0.55;;;;;;;21.40;79.73;99186.56;5036012;28;20483;-62
2022/08/06 11:21:44;;;;;;;1.90;0.70;;;;;;;20.72;84.05;99215.84;5045200;28;20365;-62
2022/08/06 11:24:29;;;;;;;1.38;0.75;;;;;;;20.64;84.54;99203.34;5031496;28;20469;-62
2022/08/06 11:27:49;;;;;;;1.52;0.70;;;;;;;20.78;84.32;99215.19;5032425;28;20045;-62
2022/08/06 11:30:49;;;;;;;1.67;0.52;;;;;;;21.12;82.77;99212.66;5031473;28;20060;-63
2022/08/06 11:33:34;;;;;;;;;;;;;;;21.23;82.29;99207.03;5032988;28;20503;-62
2022/08/06 11:36:27;;;;;;;1.83;0.60;;;;;;;21.01;83.36;99211.13;5032232;28;20022;-63
2022/08/06 11:39:12;;;;;;;2.00;0.50;;;;;;;21.45;81.53;99202.03;5043094;28;20140;-61
2022/08/06 11:41:59;;;;;;;1.23;0.77;;;;;;;21.58;81.28;99192.69;5032037;28;20065;-63
2022/08/06 11:45:00;;;;;;;2.72;0.80;;;;;;;21.45;82.13;99194.03;5039122;28;20053;-63
2022/08/06 11:48:03;;;;;;;1.30;0.73;;;;;;;21.66;81.71;99187.38;5026025;28;20579;-62
2022/08/06 11:50:48;;;;;;;1.00;0.90;;;;;;;21.96;80.09;99189.53;5045415;28;20444;-62
2022/08/06 11:53:39;;;;;;;1.13;0.95;;;;;;;22.27;78.82;99184.31;5041071;28;20441;-61
2022/08/06 11:56:24;;;;;;;1.38;0.98;;;;;;;22.46;77.13;99184.06;5050822;28;20053;-61
2022/08/06 11:59:16;;;;;;;2.80;0.70;;;;;;;22.89;76.01;99181.91;5031370;28;20044;-62
2022/08/06 12:02:03;;;;;;;1.48;1.00;;;;;;;22.82;74.91;99186.28;5032127;28;20045;-62
2022/08/06 12:04:48;;;;;;;1.25;0.80;;;;;;;23.57;72.35;99185.78;5043709;28;20452;-62
2022/08/06 12:07:36;;;;;;;1.15;0.88;;;;;;;23.50;72.05;99177.66;5031929;28;20058;-62
2022/08/06 12:10:21;;;;;;;1.67;0.80;;;;;;;23.90;70.20;99181.16;5031745;28;20041;-62
2022/08/06 12:13:38;;;;;;;4.30;0.80;;;;;;;24.40;68.28;99168.06;5043667;28;20378;-61
2022/08/06 12:16:30;;;;;;;2.60;0.60;;;;;;;25.36;64.95;99176.16;5030567;28;20044;-61
2022/08/06 12:19:15;;;;;;;2.08;0.73;;;;;;;26.48;60.40;99171.16;5031745;28;20038;-61
2022/08/06 12:22:02;;;;;;;0.63;0.50;;;;;;;26.13;60.97;99166.63;5031639;28;20042;-61
2022/08/06 12:24:50;;;;;;;0.93;0.60;;;;;;;25.89;62.02;99161.53;5016953;28;20061;-61
2022/08/06 12:27:37;;;;;;;0.82;0.40;;;;;;;26.61;59.49;99151.59;5031517;28;20053;-62
2022/08/06 12:30:22;;;;;;;0.68;0.40;;;;;;;26.97;58.31;99157.66;5030333;28;20037;-61
2022/08/06 12:33:08;;;;;;;1.42;0.63;;;;;;;26.19;60.00;99150.56;5038797;28;20052;-62
2022/08/06 12:35:58;;;;;;;0.60;0.47;;;;;;;26.02;60.23;99139.31;5036480;28;20037;-62
2022/08/06 12:38:55;;;;;;;0.90;0.50;;;;;;;26.62;58.98;99148.69;5038051;28;20211;-62
2022/08/06 12:41:41;;;;;;;3.40;0.65;;;;;;;27.28;55.55;99150.91;5031309;28;20037;-63
2022/08/06 12:44:32;;;;;;;0.85;0.47;;;;;;;26.98;57.05;99146.72;5040182;28;20037;-62
2022/08/06 12:47:16;;;;;;;0.88;0.47;;;;;;;27.94;54.64;99144.91;5031662;28;20496;-62
2022/08/06 12:50:15;;;;;;;0.80;0.50;;;;;;;27.77;53.57;99118.44;5031099;28;20046;-62
2022/08/06 12:53:03;;;;;;;0.60;0.32;;;;;;;28.00;53.88;99147.59;5031259;28;20045;-62
2022/08/06 12:55:52;;;;;;;3.35;0.65;;;;;;;28.44;51.14;99130.88;5031210;28;20489;-62
2022/08/06 12:58:40;;;;;;;0.98;0.45;;;;;;;28.16;52.25;99165.16;5036465;28;20048;-63
2022/08/06 13:01:27;;;;;;;0.82;0.50;;;;;;;28.23;50.76;99130.13;5047954;28;20041;-61
2022/08/06 13:04:15;;;;;;;0.50;0.30;;;;;;;28.43;50.59;99155.34;5037492;28;20479;-63
2022/08/06 13:07:01;;;;;;;0.52;0.30;;;;;;;28.61;49.67;99150.06;5031806;28;20400;-63
2022/08/06 13:09:47;;;;;;;0.32;0.30;;;;;;;27.53;50.86;99177.22;5025790;28;20041;-63
2022/08/06 13:12:32;;;;;;;0.43;0.17;;;;;;;28.26;48.35;99162.00;5030531;28;20037;-64
2022/08/06 13:15:17;;;;;;;0.17;0.17;;;;;;;29.05;46.32;99170.19;5044051;28;20065;-66
2022/08/06 13:18:16;;;;;;;0.45;0.10;;;;;;;29.54;46.42;99153.44;5030186;28;20053;-62
2022/08/06 13:21:03;;;;;;;0.28;0.20;;;;;;;30.06;44.56;99172.06;5020096;28;20120;-63